createdAt,value
2023-04-10T00:02:41.690Z,102070
2023-04-10T00:07:41.589Z,102070
2023-04-10T00:17:41.653Z,102070
2023-04-10T00:32:41.606Z,102060
2023-04-10T00:37:41.589Z,102050
2023-04-10T00:42:41.630Z,102030
2023-04-10T01:02:41.691Z,102010
2023-04-10T01:07:41.608Z,102000
2023-04-10T01:17:41.639Z,101990
2023-04-10T01:22:41.824Z,101990
2023-04-10T01:32:41.649Z,101990
2023-04-10T01:37:41.608Z,102000
2023-04-10T01:47:41.634Z,101990
2023-04-10T01:52:41.598Z,101990
2023-04-10T01:57:41.638Z,101990
2023-04-10T02:02:41.743Z,101980
2023-04-10T02:05:46.667Z,101980
2023-04-10T02:07:41.619Z,101980
2023-04-10T02:12:41.656Z,101970
2023-04-10T02:17:41.615Z,101980
2023-04-10T02:27:41.652Z,101970
2023-04-10T02:32:41.653Z,101970
2023-04-10T02:42:41.627Z,101960
2023-04-10T02:47:41.772Z,101960
2023-04-10T02:52:41.634Z,101950
2023-04-10T02:57:41.628Z,101950
2023-04-10T03:02:41.784Z,101950
2023-04-10T03:07:41.670Z,101940
2023-04-10T03:12:41.663Z,101940
2023-04-10T03:22:41.637Z,101940
2023-04-10T03:32:41.663Z,101940
2023-04-10T03:37:41.662Z,101940
2023-04-10T03:47:41.700Z,101930
2023-04-10T03:52:41.672Z,101940
2023-04-10T03:57:41.656Z,101930
2023-04-10T04:02:41.813Z,101930
2023-04-10T04:07:41.651Z,101910
2023-04-10T04:12:41.673Z,101910
2023-04-10T04:17:41.683Z,101910
2023-04-10T04:22:41.645Z,101910
2023-04-10T04:27:41.683Z,101900
2023-04-10T04:47:41.728Z,101890
2023-04-10T04:57:41.690Z,101890
2023-04-10T05:02:41.804Z,101890
2023-04-10T05:17:41.765Z,101880
2023-04-10T05:32:41.718Z,101870
2023-04-10T05:42:41.684Z,101860
2023-04-10T05:47:41.702Z,101870
2023-04-10T05:52:41.702Z,101870
2023-04-10T05:57:41.705Z,101870
2023-04-10T06:02:41.996Z,101870
2023-04-10T06:07:41.678Z,101860
2023-04-10T06:12:41.680Z,101850
2023-04-10T06:17:41.901Z,101850
2023-04-10T06:22:41.709Z,101840
2023-04-10T06:27:41.694Z,101830
2023-04-10T06:37:41.731Z,101820
2023-04-10T06:42:41.702Z,101820
2023-04-10T06:47:41.748Z,101810
2023-04-10T06:52:41.714Z,101810
2023-04-10T06:57:41.726Z,101810
2023-04-10T07:02:41.747Z,101800
2023-04-10T07:07:41.892Z,101790
2023-04-10T07:12:41.734Z,101790
2023-04-10T07:17:41.734Z,101770
2023-04-10T07:22:41.744Z,101760
2023-04-10T07:37:41.727Z,101740
2023-04-10T07:47:41.777Z,101710
2023-04-10T07:52:41.716Z,101700
2023-04-10T07:57:42.283Z,101690
2023-04-10T08:07:41.724Z,101680
2023-04-10T08:12:41.783Z,101680
2023-04-10T08:17:41.773Z,101680
2023-04-10T08:22:41.752Z,101670
2023-04-10T08:27:41.719Z,101650
2023-04-10T08:32:41.821Z,101650
2023-04-10T08:37:43.139Z,101650
2023-04-10T08:42:41.758Z,101660
2023-04-10T08:47:41.767Z,101650
2023-04-10T08:52:41.754Z,101650
2023-04-10T08:57:45.224Z,101650
2023-04-10T09:07:41.747Z,101630
2023-04-10T09:12:41.751Z,101630
2023-04-10T09:17:41.759Z,101620
2023-04-10T09:22:41.740Z,101620
2023-04-10T09:32:41.898Z,101620
2023-04-10T09:37:41.741Z,101610
2023-04-10T09:42:41.782Z,101590
2023-04-10T09:47:41.795Z,101580
2023-04-10T09:52:41.787Z,101580
2023-04-10T09:57:41.750Z,101560
2023-04-10T10:02:41.867Z,101550
2023-04-10T10:07:41.750Z,101540
2023-04-10T10:12:41.748Z,101530
2023-04-10T10:17:41.791Z,101510
2023-04-10T10:22:41.764Z,101500
2023-04-10T10:27:41.776Z,101500
2023-04-10T10:32:41.774Z,101480
2023-04-10T10:37:41.804Z,101470
2023-04-10T10:42:41.787Z,101470
2023-04-10T10:47:41.814Z,101470
2023-04-10T10:52:41.777Z,101460
2023-04-10T10:57:41.787Z,101440
2023-04-10T11:02:41.894Z,101420
2023-04-10T11:07:41.773Z,101430
2023-04-10T11:12:41.796Z,101420
2023-04-10T11:17:41.841Z,101420
2023-04-10T11:22:41.806Z,101410
2023-04-10T11:32:41.862Z,101380
2023-04-10T11:37:41.804Z,101370
2023-04-10T11:42:41.786Z,101360
2023-04-10T11:47:41.841Z,101340
2023-04-10T11:52:41.805Z,101320
2023-04-10T11:57:41.828Z,101320
2023-04-10T12:02:41.949Z,101320
2023-04-10T12:07:41.807Z,101330
2023-04-10T12:12:41.781Z,101310
2023-04-10T12:17:41.837Z,101310
2023-04-10T12:22:41.805Z,101310
2023-04-10T12:27:41.835Z,101280
2023-04-10T12:32:41.879Z,101280
2023-04-10T12:37:41.809Z,101280
2023-04-10T12:42:41.841Z,101270
2023-04-10T12:47:41.838Z,101260
2023-04-10T12:52:41.870Z,101260
2023-04-10T12:57:41.812Z,101240
2023-04-10T13:02:42.131Z,101240
2023-04-10T13:07:41.833Z,101240
2023-04-10T13:12:42.042Z,101210
2023-04-10T13:22:41.836Z,101200
2023-04-10T13:27:41.821Z,101190
2023-04-10T13:32:41.831Z,101180
2023-04-10T13:37:41.835Z,101180
2023-04-10T13:42:42.647Z,101160
2023-04-10T13:47:41.900Z,101150
2023-04-10T14:02:41.958Z,101110
2023-04-10T14:07:41.851Z,101100
2023-04-10T14:12:41.859Z,101070
2023-04-10T14:17:41.883Z,101070
2023-04-10T14:22:41.852Z,101060
2023-04-10T14:27:41.847Z,101060
2023-04-10T14:32:41.987Z,101040
2023-04-10T14:37:41.868Z,101040
2023-04-10T14:42:41.848Z,101030
2023-04-10T14:47:41.976Z,101020
2023-04-10T14:52:41.841Z,101010
2023-04-10T14:57:41.870Z,101000
2023-04-10T15:02:41.921Z,101010
2023-04-10T15:07:41.869Z,101010
2023-04-10T15:12:41.904Z,101010
2023-04-10T15:17:41.899Z,101020
2023-04-10T15:22:41.877Z,101030
2023-04-10T15:27:41.882Z,101030
2023-04-10T15:32:41.943Z,101030
2023-04-10T15:37:41.864Z,101030
2023-04-10T15:42:41.884Z,101020
2023-04-10T15:47:41.927Z,101000
2023-04-10T15:52:41.869Z,100990
2023-04-10T15:57:41.894Z,101000
2023-04-10T16:02:42.135Z,100980
2023-04-10T16:07:41.915Z,100960
2023-04-10T16:17:41.942Z,100930
2023-04-10T16:22:41.890Z,100920
2023-04-10T16:27:41.902Z,100900
2023-04-10T16:37:41.886Z,100860
2023-04-10T16:42:41.951Z,100860
2023-04-10T16:47:41.892Z,100860
2023-04-10T16:52:41.944Z,100860
2023-04-10T17:07:43.699Z,100870
2023-04-10T17:17:41.924Z,100880
2023-04-10T17:22:41.927Z,100900
2023-04-10T17:27:41.930Z,100930
2023-04-10T17:32:43.051Z,100970
2023-04-10T17:37:41.937Z,100970
2023-04-10T17:42:41.937Z,100960
2023-04-10T17:47:41.975Z,100980
2023-04-10T18:07:41.915Z,100950
2023-04-10T18:17:41.971Z,100920
2023-04-10T18:22:41.913Z,100910
2023-04-10T18:27:43.502Z,100900
2023-04-10T18:32:41.988Z,100880
2023-04-10T18:47:41.981Z,100860
2023-04-10T18:57:41.942Z,100850
2023-04-10T19:07:49.869Z,100870
2023-04-10T19:12:41.963Z,100870
2023-04-10T19:17:41.976Z,100870
2023-04-10T19:27:41.944Z,100850
2023-04-10T19:37:41.940Z,100840
2023-04-10T19:42:41.949Z,100810
2023-04-10T19:47:41.978Z,100820
2023-04-10T19:57:41.943Z,100840
2023-04-10T20:02:42.384Z,100850
2023-04-10T20:12:41.972Z,100820
2023-04-10T20:17:42.006Z,100830
2023-04-10T20:27:41.983Z,100820
2023-04-10T20:32:41.988Z,100810
2023-04-10T20:42:41.957Z,100800
2023-04-10T20:47:42.072Z,100800
2023-04-10T20:52:41.971Z,100780
2023-04-10T20:57:42.006Z,100800
2023-04-10T21:02:42.072Z,100800
2023-04-10T21:17:42.010Z,100780
2023-04-10T21:22:41.990Z,100790
2023-04-10T21:27:41.977Z,100800
2023-04-10T21:32:42.053Z,100800
2023-04-10T21:42:42.020Z,100800
2023-04-10T21:47:42.053Z,100790
2023-04-10T21:57:41.997Z,100790
2023-04-10T22:07:42.002Z,100780
2023-04-10T22:17:42.045Z,100780
2023-04-10T22:22:41.993Z,100770
2023-04-10T22:32:42.027Z,100760
2023-04-10T22:37:42.029Z,100760
2023-04-10T22:47:42.008Z,100740
2023-04-10T22:57:42.033Z,100730
2023-04-10T23:02:42.126Z,100740
2023-04-10T23:32:42.072Z,100730
2023-04-10T23:42:42.062Z,100750
2023-04-10T23:47:42.082Z,100760
2023-04-10T23:52:42.046Z,100750
